Terminal Aerodrome Forecast
Issued by NWS Rapid City, SD

Home | Current Version | Previous Version | Text Only | Print | Product List | Glossary On
Versions: 1 2 3 4 5 6 7 8 9 10 11 12 13 14 15 16 17 18 19 20 21 22
000
FTUS43 KUNR 291000 AAA
TAFRAP
TAF AMD
KRAP 291003Z 2910/3006 30008KT P6SM SKC
     FM291300 34015KT P6SM SCT080 BKN150
      TEMPO 2913/2914 34018G30KT
     FM291800 35017KT P6SM SCT080
     FM292200 05008KT P6SM SCT250
     FM300300 11006KT P6SM SKC=

USA.gov is the U.S. government's official web portal to all federal, state and local government web resources and services.